• Join FlightAware (Why Join?)
  • Login
  • US Flag GB Flag 
18:51 EDT


 

Airport Tracker/Info


-or-


 

Live Flight TrackerFlight Track Log ✈ PCM8679 ✈ 31-Mar-2012 ✈ KOAK - KMRY

Flight Track Log - Related Links

Times and Time Zones

All times are in EDT time to prevent confusion due to time zone crossing. See the PCM8679 flight status page for this flight to view local times or setup timezone preferences in your user account.

Time Position Orientation Groundspeed Altitude Reporting Facility
EDT Latitude Longitude Course Direction KTS MPH feet Rate Location/Type
10:16 37.7167 -122.2167 90° East 65 75 300  Level Northern Cal TRACON
10:17 37.7167 -122.1833 90° East 85 98 900 780 Climbing Northern Cal TRACON
10:19 37.7167 -122.1500 122° Southeast 104 120 1,900 840 Climbing Northern Cal TRACON
10:20 37.7000 -122.1167 90° East 110 127 2,800 780 Climbing Northern Cal TRACON
10:21 37.7000 -122.0667 90° East 111 128 3,500 720 Climbing Northern Cal TRACON
10:22 37.7000 -122.0333 113° Southeast 121 139 4,200 600 Climbing Northern Cal TRACON
10:23 37.6833 -121.9833 122° Southeast 121 139 4,800 300 Climbing Northern Cal TRACON
10:24 37.6667 -121.9500 142° Southeast 135 155 4,900  Climbing Northern Cal TRACON
10:25 37.6500 -121.9333 142° Southeast 118 136 4,900 240 Level Northern Cal TRACON
10:26 37.6167 -121.9000 180° South 109 125 5,500 480 Climbing Northern Cal TRACON
10:27 37.5833 -121.9000 180° South 93 107 5,900 480 Climbing Northern Cal TRACON
10:27 37.5667 -121.9000 180° South 87 100 6,400 480 Climbing Northern Cal TRACON
10:28 37.5500 -121.9000 180° South 91 105 6,800 240 Climbing Northern Cal TRACON
10:29 37.5167 -121.9000 202° Southwest 113 130 6,900  Climbing Northern Cal TRACON
10:30 37.4833 -121.9167 180° South 121 139 6,900  Level Northern Cal TRACON
10:31 37.4500 -121.9167 180° South 123 142 7,000  Climbing Northern Cal TRACON
10:32 37.4167 -121.9167 180° South 125 144 7,000  Level Northern Cal TRACON
10:33 37.3833 -121.9167 180° South 106 122 7,000  Level Northern Cal TRACON
10:34 37.3667 -121.9167 180° South 96 110 7,000  Level Northern Cal TRACON
10:35 37.3333 -121.9167 180° South 99 114 7,000  Level Northern Cal TRACON
10:36 37.3000 -121.9167 180° South 118 136 7,000  Level Northern Cal TRACON
10:37 37.2667 -121.9167 180° South 130 150 7,000 -60 Level Northern Cal TRACON
10:38 37.2333 -121.9167 180° South 131 151 6,900 -60 Descending Northern Cal TRACON
10:39 37.2000 -121.9167 180° South 120 138 6,900 -60 Level Northern Cal TRACON
10:40 37.1667 -121.9167 180° South 104 120 6,800 -360 Descending Northern Cal TRACON
10:41 37.1333 -121.9167 202° Southwest 128 147 6,200 -540 Descending Northern Cal TRACON
10:42 37.1000 -121.9333 158° South 132 152 5,800 -480 Descending Northern Cal TRACON
10:43 37.0667 -121.9167 202° Southwest 135 155 5,300 -420 Descending Northern Cal TRACON
10:44 37.0333 -121.9333 180° South 130 150 5,000 -240 Descending Northern Cal TRACON
10:45 36.9833 -121.9333 180° South 120 138 4,900 -300 Descending Northern Cal TRACON
10:46 36.9500 -121.9333 180° South 141 162 4,500 -420 Descending Northern Cal TRACON
10:47 36.9167 -121.9333 180° South 140 161 4,200 -300 Descending Northern Cal TRACON
10:48 36.8833 -121.9333 180° South 137 158 3,900 -360 Descending Northern Cal TRACON
10:49 36.8333 -121.9333 158° South 138 159 3,500 -360 Descending Northern Cal TRACON
10:50 36.8000 -121.9167 180° South 134 154 3,200 -300 Descending Northern Cal TRACON
10:51 36.7667 -121.9167 158° South 132 152 3,000 -300 Descending Northern Cal TRACON
10:52 36.7333 -121.9000 180° South 130 150 2,700 -300 Descending Northern Cal TRACON
10:53 36.7000 -121.9000 158° South 129 148 2,500 -300 Descending Northern Cal TRACON
10:54 36.6667 -121.8833 180° South 132 152 2,100 -480 Descending Northern Cal TRACON
10:55 36.6167 -121.8833 180° South 111 128 1,600 -660 Descending Northern Cal TRACON
10:56 36.6000 -121.8833 180° South 99 114 800 -840 Descending Northern Cal TRACON